Terminal Aerodrome Forecast
Issued by NWS Jackson, KY

Home | Current Version | Previous Version | Text Only | Print | Product List | Glossary On
Versions: 1 2 3 4 5 6 7 8 9 10 11 12 13 14
871
FTUS43 KJKL 261739
TAFLOZ
TAF
KLOZ 261739Z 2618/2718 VRB05KT P6SM -RA BKN150
     FM262300 VRB03KT P6SM VCTS BKN035CB
     FM270200 VRB03KT P6SM SCT035
     FM270900 00000KT 4SM BR FEW050 SCT100
     FM271500 VRB05KT P6SM BKN040=

USA.gov is the U.S. government's official web portal to all federal, state and local government web resources and services.